createdAt,value
2017-11-24T00:00:42.813Z,94.87
2017-11-24T00:03:10.502Z,94.86
2017-11-24T00:05:38.181Z,94.85
2017-11-24T00:08:05.873Z,94.80
2017-11-24T00:10:33.474Z,94.71
2017-11-24T00:13:01.152Z,94.61
2017-11-24T00:15:28.805Z,94.44
2017-11-24T00:17:56.457Z,94.28
2017-11-24T00:20:24.075Z,94.03
2017-11-24T00:22:51.785Z,93.89
2017-11-24T00:25:19.429Z,93.77
2017-11-24T00:27:47.104Z,93.56
2017-11-24T00:30:14.813Z,93.39
2017-11-24T00:32:42.400Z,93.26
2017-11-24T00:35:10.093Z,93.24
2017-11-24T00:37:37.736Z,93.20
2017-11-24T00:40:05.360Z,93.08
2017-11-24T00:42:33.047Z,92.92
2017-11-24T00:45:00.744Z,92.80
2017-11-24T00:47:28.341Z,92.74
2017-11-24T00:49:56.053Z,92.61
2017-11-24T00:52:23.707Z,92.62
2017-11-24T00:54:51.438Z,92.65
2017-11-24T00:57:19.029Z,92.75
2017-11-24T00:59:46.742Z,92.85
2017-11-24T01:02:14.412Z,93.00
2017-11-24T01:04:42.073Z,93.08
2017-11-24T01:07:09.704Z,93.19
2017-11-24T01:09:37.427Z,93.23
2017-11-24T01:12:05.113Z,93.33
2017-11-24T01:14:32.788Z,93.43
2017-11-24T01:17:00.506Z,93.55
2017-11-24T01:19:28.084Z,93.68
2017-11-24T01:21:55.781Z,93.84
2017-11-24T01:24:23.518Z,94.09
2017-11-24T01:26:51.270Z,94.27
2017-11-24T01:29:18.959Z,94.46
2017-11-24T01:31:46.659Z,94.63
2017-11-24T01:34:14.275Z,94.79
2017-11-24T01:36:41.970Z,94.88
2017-11-24T01:39:09.590Z,94.98
2017-11-24T01:41:37.287Z,95.04
2017-11-24T01:44:04.950Z,95.06
2017-11-24T01:46:32.656Z,95.10
2017-11-24T01:49:00.303Z,95.15
2017-11-24T01:51:28.042Z,95.25
2017-11-24T01:53:55.690Z,95.36
2017-11-24T01:56:23.453Z,95.50
2017-11-24T01:58:51.096Z,95.60
2017-11-24T02:01:18.791Z,95.61
2017-11-24T02:03:46.380Z,95.64
2017-11-24T02:06:14.004Z,95.74
2017-11-24T02:08:41.707Z,95.83
2017-11-24T02:11:09.408Z,95.90
2017-11-24T02:13:37.501Z,95.97
2017-11-24T02:16:05.212Z,96.12
2017-11-24T02:18:32.874Z,96.25
2017-11-24T02:21:00.493Z,96.42
2017-11-24T02:23:28.131Z,96.57
2017-11-24T02:25:55.803Z,96.78
2017-11-24T02:28:23.504Z,96.96
2017-11-24T02:30:51.114Z,97.10
2017-11-24T02:33:18.761Z,97.25
2017-11-24T02:35:46.423Z,97.33
2017-11-24T02:38:14.123Z,97.46
2017-11-24T02:40:41.709Z,97.53
2017-11-24T02:43:09.404Z,97.62
2017-11-24T02:45:37.063Z,97.75
2017-11-24T02:48:04.759Z,97.82
2017-11-24T02:50:32.442Z,97.93
2017-11-24T02:53:00.130Z,97.94
2017-11-24T02:55:27.717Z,97.90
2017-11-24T02:57:55.436Z,97.96
2017-11-24T03:00:23.125Z,98.02
2017-11-24T03:02:50.824Z,98.10
2017-11-24T03:05:18.456Z,98.16
2017-11-24T03:07:46.154Z,98.29
2017-11-24T03:10:13.836Z,98.37
2017-11-24T03:12:41.500Z,98.40
2017-11-24T03:15:10.007Z,98.44
2017-11-24T03:17:37.733Z,98.47
2017-11-24T03:20:05.394Z,98.52
2017-11-24T03:22:33.120Z,98.48
2017-11-24T03:25:00.769Z,98.47
2017-11-24T03:27:28.404Z,98.49
2017-11-24T03:29:56.109Z,98.50
2017-11-24T03:32:23.809Z,98.51
2017-11-24T03:34:51.489Z,98.58
2017-11-24T03:37:19.328Z,98.72
2017-11-24T03:39:46.956Z,98.81
2017-11-24T03:42:14.689Z,98.79
2017-11-24T03:44:42.391Z,98.78
2017-11-24T03:47:10.043Z,98.82
2017-11-24T03:49:37.737Z,98.90
2017-11-24T03:52:05.430Z,99.01
2017-11-24T03:54:33.060Z,99.09
2017-11-24T03:57:00.717Z,99.16
2017-11-24T03:59:28.428Z,99.18
2017-11-24T04:01:56.113Z,99.21
2017-11-24T04:04:23.724Z,99.24
2017-11-24T04:06:51.397Z,99.22
2017-11-24T04:09:19.098Z,99.21
2017-11-24T04:11:46.816Z,99.23
2017-11-24T04:14:14.476Z,99.27
2017-11-24T04:16:42.153Z,99.35
2017-11-24T04:19:09.877Z,99.46
2017-11-24T04:21:37.588Z,99.57
2017-11-24T04:24:05.356Z,99.61
2017-11-24T04:26:33.035Z,99.61
2017-11-24T04:29:00.710Z,99.57
2017-11-24T04:31:28.394Z,99.58
2017-11-24T04:33:56.041Z,99.60
2017-11-24T04:36:23.749Z,99.69
2017-11-24T04:38:51.398Z,99.80
2017-11-24T04:41:19.113Z,99.92
2017-11-24T04:43:46.876Z,100.00
2017-11-24T04:46:14.608Z,100.00
2017-11-24T04:48:42.300Z,100.00
2017-11-24T04:51:09.931Z,100.00
2017-11-24T04:53:37.537Z,100.00
2017-11-24T04:56:05.373Z,100.00
2017-11-24T04:58:33.037Z,100.00
2017-11-24T05:01:00.748Z,100.00
2017-11-24T05:03:28.405Z,99.97
2017-11-24T05:05:56.040Z,99.93
2017-11-24T05:08:23.730Z,99.94
2017-11-24T05:10:51.473Z,99.96
2017-11-24T05:13:19.145Z,99.94
2017-11-24T05:15:47.797Z,99.91
2017-11-24T05:18:15.454Z,99.79
2017-11-24T05:20:43.189Z,99.66
2017-11-24T05:23:10.865Z,99.51
2017-11-24T05:25:38.607Z,99.36
2017-11-24T05:28:06.309Z,99.22
2017-11-24T05:30:33.953Z,99.03
2017-11-24T05:33:01.654Z,98.83
2017-11-24T05:35:30.240Z,98.64
2017-11-24T05:37:57.954Z,98.47
2017-11-24T05:40:25.622Z,98.29
2017-11-24T05:42:53.266Z,98.11
2017-11-24T05:45:20.878Z,98.04
2017-11-24T05:47:48.538Z,98.13
2017-11-24T05:50:16.165Z,98.29
2017-11-24T05:52:43.852Z,98.46
2017-11-24T05:55:11.543Z,98.71
2017-11-24T05:57:39.226Z,98.97
2017-11-24T06:00:06.810Z,99.20
2017-11-24T06:02:34.432Z,99.33
2017-11-24T06:05:02.092Z,99.33
2017-11-24T06:07:29.767Z,99.23
2017-11-24T06:09:57.422Z,99.16
2017-11-24T06:12:25.163Z,99.09
2017-11-24T06:14:52.856Z,99.03
2017-11-24T06:17:20.530Z,98.97
2017-11-24T06:19:48.247Z,98.92
2017-11-24T06:22:15.953Z,98.88
2017-11-24T06:24:43.728Z,98.89
2017-11-24T06:27:11.392Z,98.91
2017-11-24T06:29:39.020Z,98.93
2017-11-24T06:32:06.706Z,98.95
2017-11-24T06:34:35.621Z,99.05
2017-11-24T06:37:03.835Z,99.34
2017-11-24T06:39:31.964Z,99.63
2017-11-24T06:41:59.807Z,99.93
2017-11-24T06:44:27.491Z,100.00
2017-11-24T06:46:55.316Z,100.00
2017-11-24T06:49:24.120Z,100.00
2017-11-24T06:51:52.155Z,100.00
2017-11-24T06:54:20.264Z,100.00
2017-11-24T06:56:47.971Z,100.00
2017-11-24T06:59:15.663Z,100.00
2017-11-24T07:01:43.528Z,100.00
2017-11-24T07:04:11.224Z,100.00
2017-11-24T07:06:40.157Z,100.00
2017-11-24T07:09:07.891Z,100.00
2017-11-24T07:11:35.581Z,100.00
2017-11-24T07:14:03.454Z,100.00
2017-11-24T07:16:31.854Z,100.00
2017-11-24T07:18:59.639Z,100.00
2017-11-24T07:21:27.757Z,100.00
2017-11-24T07:23:55.471Z,100.00
2017-11-24T07:26:23.380Z,100.00
2017-11-24T07:28:51.061Z,100.00
2017-11-24T07:31:19.145Z,100.00
2017-11-24T07:33:46.878Z,100.00
2017-11-24T07:36:16.020Z,100.00
2017-11-24T07:38:43.854Z,100.00
2017-11-24T07:41:11.680Z,100.00
2017-11-24T07:43:39.363Z,100.00
2017-11-24T07:46:07.072Z,100.00
2017-11-24T07:48:34.773Z,100.00
2017-11-24T07:51:03.175Z,100.00
2017-11-24T07:53:31.287Z,100.00
2017-11-24T07:55:59.058Z,100.00
2017-11-24T07:58:27.101Z,100.00
2017-11-24T08:00:55.352Z,100.00
2017-11-24T08:03:23.151Z,100.00
2017-11-24T08:05:50.912Z,100.00
2017-11-24T08:08:19.014Z,100.00
2017-11-24T08:10:47.119Z,100.00
2017-11-24T08:13:15.353Z,100.00
2017-11-24T08:15:43.138Z,100.00
2017-11-24T08:18:10.918Z,100.00
2017-11-24T08:20:38.673Z,100.00
2017-11-24T08:23:08.157Z,100.00
2017-11-24T08:25:35.932Z,100.00
2017-11-24T08:28:03.638Z,100.00
2017-11-24T08:30:31.401Z,100.00
2017-11-24T08:32:59.531Z,100.00
2017-11-24T08:35:28.701Z,100.00
2017-11-24T08:37:56.821Z,100.00
2017-11-24T08:40:24.525Z,100.00
2017-11-24T08:42:52.233Z,100.00
2017-11-24T08:45:21.066Z,100.00
2017-11-24T08:47:54.308Z,100.00
2017-11-24T08:50:22.070Z,100.00
2017-11-24T08:52:50.196Z,100.00
2017-11-24T08:55:18.484Z,100.00
2017-11-24T08:57:46.491Z,100.00
2017-11-24T09:00:14.153Z,100.00
2017-11-24T09:02:41.949Z,100.00
2017-11-24T09:05:10.796Z,100.00
2017-11-24T09:07:38.930Z,100.00
2017-11-24T09:10:06.711Z,100.00
2017-11-24T09:12:34.461Z,100.00
2017-11-24T09:15:02.710Z,100.00
2017-11-24T09:17:32.684Z,100.00
2017-11-24T09:20:00.413Z,100.00
2017-11-24T09:22:29.147Z,100.00
2017-11-24T09:24:58.173Z,100.00
2017-11-24T09:27:26.812Z,100.00
2017-11-24T09:29:54.931Z,100.00
2017-11-24T09:32:22.652Z,100.00
2017-11-24T09:34:51.611Z,100.00
2017-11-24T09:37:19.349Z,100.00
2017-11-24T09:39:47.829Z,100.00
2017-11-24T09:42:15.849Z,100.00
2017-11-24T09:44:45.730Z,100.00
2017-11-24T09:47:13.520Z,100.00
2017-11-24T09:49:41.642Z,100.00
2017-11-24T09:52:09.424Z,100.00
2017-11-24T09:54:37.535Z,100.00
2017-11-24T09:57:06.133Z,100.00
2017-11-24T09:59:34.772Z,100.00
2017-11-24T10:02:02.486Z,100.00
2017-11-24T10:04:30.994Z,100.00
2017-11-24T10:06:58.813Z,100.00
2017-11-24T10:09:26.522Z,100.00
2017-11-24T10:11:54.276Z,100.00
2017-11-24T10:14:22.106Z,100.00
2017-11-24T10:16:49.896Z,100.00
2017-11-24T10:19:19.012Z,100.00
2017-11-24T10:21:52.243Z,100.00
2017-11-24T10:24:20.420Z,100.00
2017-11-24T10:26:48.124Z,100.00
2017-11-24T10:29:16.186Z,100.00
2017-11-24T10:31:43.886Z,100.00
2017-11-24T10:34:12.322Z,100.00
2017-11-24T10:36:39.940Z,100.00
2017-11-24T10:39:09.934Z,100.00
2017-11-24T10:41:37.999Z,100.00
2017-11-24T10:44:05.821Z,99.62
2017-11-24T10:46:34.792Z,99.30
2017-11-24T10:49:02.574Z,99.08
2017-11-24T10:51:30.295Z,97.74
2017-11-24T10:53:58.356Z,98.33
2017-11-24T10:56:26.376Z,96.76
2017-11-24T10:58:55.327Z,97.83
2017-11-24T11:01:23.337Z,98.18
2017-11-24T11:03:52.057Z,98.23
2017-11-24T11:06:19.799Z,98.63
2017-11-24T11:08:47.737Z,98.83
2017-11-24T11:11:17.476Z,99.04
2017-11-24T11:13:45.226Z,99.08
2017-11-24T11:16:13.192Z,98.76
2017-11-24T11:18:41.009Z,98.65
2017-11-24T11:21:09.188Z,98.71
2017-11-24T11:23:37.381Z,98.63
2017-11-24T11:26:05.255Z,99.16
2017-11-24T11:28:34.197Z,99.21
2017-11-24T11:31:01.936Z,98.33
2017-11-24T11:33:29.696Z,98.42
2017-11-24T11:35:58.322Z,98.37
2017-11-24T11:38:26.810Z,98.56
2017-11-24T11:40:55.310Z,98.74
2017-11-24T11:43:23.143Z,98.43
2017-11-24T11:45:51.034Z,98.29
2017-11-24T11:48:18.737Z,98.23
2017-11-24T11:50:47.279Z,96.79
2017-11-24T11:53:15.441Z,96.19
2017-11-24T11:55:43.140Z,95.39
2017-11-24T11:58:11.604Z,94.78
2017-11-24T12:00:39.664Z,95.43
2017-11-24T12:03:08.600Z,95.94
2017-11-24T12:05:37.336Z,95.91
2017-11-24T12:08:06.353Z,96.23
2017-11-24T12:10:34.033Z,96.27
2017-11-24T12:13:02.294Z,96.06
2017-11-24T12:15:29.969Z,96.32
2017-11-24T12:17:59.592Z,96.88
2017-11-24T12:20:27.664Z,96.97
2017-11-24T12:22:55.442Z,96.51
2017-11-24T12:25:23.682Z,96.23
2017-11-24T12:27:51.691Z,96.23
2017-11-24T12:30:19.431Z,96.38
2017-11-24T12:32:47.284Z,96.49
2017-11-24T12:35:16.009Z,96.36
2017-11-24T12:37:43.825Z,96.54
2017-11-24T12:40:12.028Z,96.61
2017-11-24T12:42:40.521Z,96.69
2017-11-24T12:45:09.521Z,96.47
2017-11-24T12:47:37.362Z,96.42
2017-11-24T12:50:05.406Z,96.54
2017-11-24T12:52:33.189Z,96.89
2017-11-24T12:55:01.210Z,97.11
2017-11-24T12:57:29.000Z,96.47
2017-11-24T12:59:57.163Z,95.77
2017-11-24T13:02:26.172Z,95.23
2017-11-24T13:04:54.272Z,95.27
2017-11-24T13:07:22.456Z,96.05
2017-11-24T13:09:50.425Z,96.25
2017-11-24T13:12:18.663Z,96.08
2017-11-24T13:14:46.455Z,95.91
2017-11-24T13:17:14.521Z,96.20
2017-11-24T13:19:42.454Z,96.12
2017-11-24T13:22:10.886Z,95.98
2017-11-24T13:24:38.643Z,96.20
2017-11-24T13:27:06.405Z,96.49
2017-11-24T13:29:34.211Z,96.37
2017-11-24T13:32:02.181Z,96.24
2017-11-24T13:34:29.923Z,96.64
2017-11-24T13:36:57.667Z,96.57
2017-11-24T13:39:25.723Z,96.78
2017-11-24T13:41:53.456Z,96.91
2017-11-24T13:44:22.510Z,96.99
2017-11-24T13:46:50.550Z,96.76
2017-11-24T13:49:18.776Z,96.88
2017-11-24T13:51:46.541Z,97.05
2017-11-24T13:54:14.658Z,97.09
2017-11-24T13:56:42.485Z,97.09
2017-11-24T13:59:10.372Z,97.11
2017-11-24T14:01:42.150Z,97.20
2017-11-24T14:04:10.317Z,97.28
2017-11-24T14:06:38.372Z,97.38
2017-11-24T14:09:06.152Z,97.54
2017-11-24T14:11:33.914Z,97.66
2017-11-24T14:14:02.791Z,97.70
2017-11-24T14:16:30.565Z,97.62
2017-11-24T14:18:58.335Z,97.67
2017-11-24T14:21:26.067Z,97.69
2017-11-24T14:23:53.833Z,97.74
2017-11-24T14:26:21.952Z,97.80
2017-11-24T14:28:49.655Z,97.77
2017-11-24T14:31:17.436Z,97.94
2017-11-24T14:33:45.151Z,97.89
2017-11-24T14:36:13.098Z,97.97
2017-11-24T14:38:41.036Z,98.03
2017-11-24T14:41:08.807Z,98.07
2017-11-24T14:43:36.803Z,98.17
2017-11-24T14:46:05.208Z,98.30
2017-11-24T14:48:33.168Z,98.30
2017-11-24T14:51:01.488Z,98.34
2017-11-24T14:53:29.336Z,98.45
2017-11-24T14:55:57.561Z,98.54
2017-11-24T14:58:25.363Z,98.59
2017-11-24T15:00:53.435Z,98.61
2017-11-24T15:03:21.179Z,98.69
2017-11-24T15:05:49.164Z,98.80
2017-11-24T15:08:17.294Z,98.89
2017-11-24T15:10:45.084Z,98.87
2017-11-24T15:13:13.960Z,98.87
2017-11-24T15:15:41.977Z,98.87
2017-11-24T15:18:11.369Z,98.92
2017-11-24T15:20:39.430Z,99.00
2017-11-24T15:23:07.190Z,99.03
2017-11-24T15:25:34.875Z,99.08
2017-11-24T15:28:02.672Z,99.12
2017-11-24T15:30:30.745Z,99.19
2017-11-24T15:32:58.580Z,99.21
2017-11-24T15:35:26.254Z,99.23
2017-11-24T15:37:54.073Z,99.21
2017-11-24T15:40:21.764Z,99.22
2017-11-24T15:42:49.504Z,99.21
2017-11-24T15:45:17.413Z,99.24
2017-11-24T15:47:45.959Z,99.24
2017-11-24T15:50:13.670Z,99.24
2017-11-24T15:52:41.680Z,99.26
2017-11-24T15:55:09.504Z,99.34
2017-11-24T15:57:37.498Z,99.39
2017-11-24T16:00:06.632Z,99.41
2017-11-24T16:02:34.383Z,99.41
2017-11-24T16:05:02.196Z,99.40
2017-11-24T16:07:29.946Z,99.45
2017-11-24T16:09:57.686Z,99.48
2017-11-24T16:12:25.419Z,99.56
2017-11-24T16:14:53.214Z,99.62
2017-11-24T16:17:20.940Z,99.62
2017-11-24T16:19:48.695Z,99.62
2017-11-24T16:22:18.640Z,99.60
2017-11-24T16:24:46.688Z,99.64
2017-11-24T16:27:14.921Z,99.70
2017-11-24T16:29:43.504Z,99.77
2017-11-24T16:32:11.457Z,99.80
2017-11-24T16:34:39.633Z,99.76
2017-11-24T16:37:07.426Z,99.75
2017-11-24T16:39:35.575Z,99.75
2017-11-24T16:42:03.260Z,99.70
2017-11-24T16:44:31.175Z,99.71
2017-11-24T16:46:59.066Z,99.75
2017-11-24T16:49:26.808Z,99.76
2017-11-24T16:51:54.528Z,99.71
2017-11-24T16:54:22.261Z,99.73
2017-11-24T16:56:50.100Z,99.81
2017-11-24T16:59:18.130Z,99.91
2017-11-24T17:01:46.198Z,99.96
2017-11-24T17:04:13.878Z,100.00
2017-11-24T17:06:41.929Z,100.00
2017-11-24T17:09:10.021Z,100.00
2017-11-24T17:11:38.114Z,100.00
2017-11-24T17:14:06.807Z,100.00
2017-11-24T17:16:34.783Z,100.00
2017-11-24T17:19:02.444Z,100.00
2017-11-24T17:21:30.212Z,100.00
2017-11-24T17:23:58.108Z,100.00
2017-11-24T17:26:27.054Z,100.00
2017-11-24T17:28:55.037Z,100.00
2017-11-24T17:31:23.151Z,100.00
2017-11-24T17:33:50.832Z,100.00
2017-11-24T17:36:19.586Z,100.00
2017-11-24T17:38:47.293Z,100.00
2017-11-24T17:41:15.000Z,100.00
2017-11-24T17:43:43.620Z,100.00
2017-11-24T17:46:11.356Z,100.00
2017-11-24T17:48:39.872Z,100.00
2017-11-24T17:51:07.639Z,100.00
2017-11-24T17:53:35.368Z,100.00
2017-11-24T17:56:04.258Z,100.00
2017-11-24T17:58:32.349Z,100.00
2017-11-24T18:01:00.120Z,100.00
2017-11-24T18:03:28.702Z,100.00
2017-11-24T18:05:56.460Z,100.00
2017-11-24T18:08:24.205Z,100.00
2017-11-24T18:10:51.911Z,100.00
2017-11-24T18:13:19.864Z,100.00
2017-11-24T18:15:47.588Z,100.00
2017-11-24T18:18:15.348Z,100.00
2017-11-24T18:20:43.022Z,100.00
2017-11-24T18:23:10.744Z,100.00
2017-11-24T18:25:38.429Z,100.00
2017-11-24T18:28:06.166Z,100.00
2017-11-24T18:30:33.887Z,100.00
2017-11-24T18:33:01.596Z,100.00
2017-11-24T18:35:29.241Z,100.00
2017-11-24T18:37:56.934Z,100.00
2017-11-24T18:40:24.650Z,100.00
2017-11-24T18:42:52.359Z,100.00
2017-11-24T18:45:20.073Z,100.00
2017-11-24T18:47:47.709Z,100.00
2017-11-24T18:50:15.416Z,100.00
2017-11-24T18:52:43.111Z,100.00
2017-11-24T18:55:10.856Z,100.00
2017-11-24T18:57:38.541Z,100.00
2017-11-24T19:00:06.250Z,100.00
2017-11-24T19:02:33.911Z,100.00
2017-11-24T19:05:01.633Z,100.00
2017-11-24T19:07:29.298Z,100.00
2017-11-24T19:09:57.003Z,100.00
2017-11-24T19:12:24.633Z,100.00
2017-11-24T19:14:52.249Z,100.00
2017-11-24T19:17:19.912Z,100.00
2017-11-24T19:19:47.613Z,100.00
2017-11-24T19:22:15.295Z,100.00
2017-11-24T19:24:42.977Z,100.00
2017-11-24T19:27:10.767Z,100.00
2017-11-24T19:29:38.528Z,100.00
2017-11-24T19:32:06.199Z,100.00
2017-11-24T19:34:33.869Z,100.00
2017-11-24T19:37:01.583Z,100.00
2017-11-24T19:39:29.253Z,100.00
2017-11-24T19:41:56.940Z,100.00
2017-11-24T19:44:24.601Z,100.00
2017-11-24T19:46:52.308Z,100.00
2017-11-24T19:49:19.995Z,100.00
2017-11-24T19:51:47.689Z,100.00
2017-11-24T19:54:15.356Z,100.00
2017-11-24T19:56:43.083Z,100.00
2017-11-24T19:59:10.737Z,100.00
2017-11-24T20:01:38.465Z,100.00
2017-11-24T20:04:06.125Z,100.00
2017-11-24T20:06:33.854Z,100.00
2017-11-24T20:09:01.548Z,100.00
2017-11-24T20:11:29.301Z,100.00
2017-11-24T20:13:57.055Z,100.00
2017-11-24T20:16:24.795Z,100.00
2017-11-24T20:18:52.461Z,100.00
2017-11-24T20:21:20.187Z,100.00
2017-11-24T20:23:47.872Z,100.00
2017-11-24T20:26:15.607Z,100.00
2017-11-24T20:28:43.275Z,100.00
2017-11-24T20:31:10.928Z,100.00
2017-11-24T20:33:38.685Z,100.00
2017-11-24T20:36:06.425Z,100.00
2017-11-24T20:38:34.144Z,100.00
2017-11-24T20:41:05.550Z,100.00
2017-11-24T20:43:33.597Z,100.00
2017-11-24T20:46:01.270Z,100.00
2017-11-24T20:48:28.992Z,100.00
2017-11-24T20:50:56.751Z,100.00
2017-11-24T20:53:24.456Z,100.00
2017-11-24T20:55:52.166Z,100.00
2017-11-24T20:58:19.875Z,100.00
2017-11-24T21:00:47.581Z,100.00
2017-11-24T21:03:15.302Z,100.00
2017-11-24T21:05:42.966Z,100.00
2017-11-24T21:08:10.681Z,100.00
2017-11-24T21:10:38.360Z,100.00
2017-11-24T21:13:06.112Z,100.00
2017-11-24T21:15:33.824Z,100.00
2017-11-24T21:18:01.514Z,100.00
2017-11-24T21:20:29.212Z,100.00
2017-11-24T21:22:56.918Z,100.00
2017-11-24T21:25:24.569Z,100.00
2017-11-24T21:27:52.252Z,100.00
2017-11-24T21:30:19.964Z,100.00
2017-11-24T21:32:47.646Z,100.00
2017-11-24T21:35:15.380Z,100.00
2017-11-24T21:37:43.078Z,100.00
2017-11-24T21:40:10.779Z,100.00
2017-11-24T21:42:38.453Z,100.00
2017-11-24T21:45:06.167Z,100.00
2017-11-24T21:47:33.838Z,100.00
2017-11-24T21:50:01.552Z,100.00
2017-11-24T21:52:29.188Z,100.00
2017-11-24T21:54:56.957Z,100.00
2017-11-24T21:57:24.641Z,100.00
2017-11-24T21:59:52.333Z,100.00
2017-11-24T22:02:20.025Z,100.00
2017-11-24T22:04:47.738Z,100.00
2017-11-24T22:07:15.426Z,100.00
2017-11-24T22:09:43.156Z,100.00
2017-11-24T22:12:10.830Z,100.00
2017-11-24T22:14:38.501Z,100.00
2017-11-24T22:17:06.213Z,100.00
2017-11-24T22:19:33.867Z,100.00
2017-11-24T22:22:01.582Z,100.00
2017-11-24T22:24:29.263Z,100.00
2017-11-24T22:26:56.970Z,100.00
2017-11-24T22:29:24.658Z,100.00
2017-11-24T22:31:52.397Z,100.00
2017-11-24T22:34:20.108Z,100.00
2017-11-24T22:36:47.850Z,100.00
2017-11-24T22:39:15.547Z,100.00
2017-11-24T22:41:43.255Z,100.00
2017-11-24T22:44:11.369Z,100.00
2017-11-24T22:46:39.076Z,100.00
2017-11-24T22:49:06.749Z,100.00
2017-11-24T22:51:34.469Z,100.00
2017-11-24T22:54:02.150Z,100.00
2017-11-24T22:56:30.882Z,100.00
2017-11-24T22:58:58.543Z,100.00
2017-11-24T23:01:26.189Z,100.00
2017-11-24T23:03:53.900Z,100.00
2017-11-24T23:06:21.608Z,100.00
2017-11-24T23:08:49.291Z,100.00
2017-11-24T23:11:16.963Z,100.00
2017-11-24T23:13:44.675Z,100.00
2017-11-24T23:16:12.302Z,100.00
2017-11-24T23:18:40.031Z,100.00
2017-11-24T23:21:07.697Z,100.00
2017-11-24T23:23:35.414Z,100.00
2017-11-24T23:26:03.079Z,100.00
2017-11-24T23:28:30.783Z,100.00
2017-11-24T23:30:58.481Z,100.00
2017-11-24T23:33:26.185Z,100.00
2017-11-24T23:35:53.859Z,100.00
2017-11-24T23:38:21.569Z,100.00
2017-11-24T23:40:49.231Z,100.00
2017-11-24T23:43:16.917Z,100.00
2017-11-24T23:45:44.585Z,100.00
2017-11-24T23:48:12.269Z,100.00
2017-11-24T23:50:39.932Z,100.00
2017-11-24T23:53:07.629Z,100.00
2017-11-24T23:55:35.316Z,100.00
2017-11-24T23:58:02.974Z,100.00
